Time;durP1;ratioP1;P1;durP2;ratioP2;P2;SDS_P1;SDS_P2;PMS_P1;PMS_P2;Temp;Humidity;BMP_temperature;BMP_pressure;BME280_temperature;BME280_humidity;BME280_pressure;Samples;Min_cycle;Max_cycle;Signal;HPM_P1;HPM_P2
2022/12/14 00:01:19;;;;;;;25.80;23.63;;;;;;;;;;5007507;28;20049;-74
2022/12/14 00:03:47;;;;;;;7.63;5.97;;;;;;;;;;5000655;28;20576;-75
2022/12/14 00:06:19;;;;;;;6.13;4.65;;;;;;;;;;4997376;28;20042;-74
2022/12/14 00:08:47;;;;;;;;;;;;;;;;;;4981701;28;20069;-74
2022/12/14 00:11:14;;;;;;;5.78;3.97;;;;;;;;;;4984870;28;19964;-75
2022/12/14 00:13:42;;;;;;;4.78;3.50;;;;;;;;;;5001372;28;20519;-74
2022/12/14 00:16:16;;;;;;;7.07;5.55;;;;;;;;;;4997749;28;20042;-73
2022/12/14 00:18:44;;;;;;;7.72;5.25;;;;;;;;;;4998912;28;20573;-73
2022/12/14 00:21:12;;;;;;;7.28;5.68;;;;;;;;;;5007973;28;20052;-75
2022/12/14 00:23:43;;;;;;;9.32;5.30;;;;;;;;;;4980980;28;20048;-73
2022/12/14 00:26:21;;;;;;;7.00;4.25;;;;;;;;;;4986127;28;20528;-75
2022/12/14 00:28:49;;;;;;;7.40;5.20;;;;;;;;;;4986698;28;20045;-71
2022/12/14 00:31:16;;;;;;;7.22;4.45;;;;;;;;;;4998772;28;20045;-73
2022/12/14 00:33:44;;;;;;;10.43;6.40;;;;;;;;;;4984592;28;20041;-75
2022/12/14 00:36:13;;;;;;;8.00;5.05;;;;;;;;;;4983753;28;20136;-73
2022/12/14 00:38:41;;;;;;;6.65;4.30;;;;;;;;;;5003343;28;20041;-74
2022/12/14 00:41:09;;;;;;;5.22;3.83;;;;;;;;;;4998516;28;20045;-76
2022/12/14 00:43:36;;;;;;;7.80;4.78;;;;;;;;;;5002250;28;20033;-74
2022/12/14 00:46:05;;;;;;;5.50;4.05;;;;;;;;;;5006876;28;20046;-75
2022/12/14 00:48:32;;;;;;;9.13;4.93;;;;;;;;;;4995367;28;20061;-72
2022/12/14 00:51:00;;;;;;;7.15;4.13;;;;;;;;;;4989124;28;20048;-75
2022/12/14 00:53:27;;;;;;;6.43;4.18;;;;;;;;;;5002096;28;20030;-73
2022/12/14 00:55:55;;;;;;;7.53;4.93;;;;;;;;;;4982403;28;20104;-75
2022/12/14 00:58:23;;;;;;;4.95;3.67;;;;;;;;;;5003870;28;20065;-73
2022/12/14 01:00:58;;;;;;;6.35;4.20;;;;;;;;;;4997906;28;20053;-74
2022/12/14 01:03:26;;;;;;;5.93;3.83;;;;;;;;;;4992757;28;20103;-74
2022/12/14 01:05:54;;;;;;;6.55;4.30;;;;;;;;;;4977828;28;20132;-74
2022/12/14 01:08:22;;;;;;;7.28;4.07;;;;;;;;;;4981990;28;20057;-74
2022/12/14 01:10:49;;;;;;;5.15;4.45;;;;;;;;;;4996249;28;20038;-75
2022/12/14 01:13:17;;;;;;;6.15;4.43;;;;;;;;;;4995658;28;20493;-75
2022/12/14 01:15:45;;;;;;;6.43;4.10;;;;;;;;;;4996731;28;20050;-75
2022/12/14 01:18:13;;;;;;;4.47;3.58;;;;;;;;;;4961994;28;20066;-73
2022/12/14 01:20:40;;;;;;;10.02;9.07;;;;;;;;;;4979626;28;20054;-75
2022/12/14 01:23:07;;;;;;;9.00;4.50;;;;;;;;;;4998131;28;20046;-75
2022/12/14 01:25:35;;;;;;;6.05;4.25;;;;;;;;;;4977367;28;20047;-76
2022/12/14 01:28:10;;;;;;;10.85;9.77;;;;;;;;;;5002072;28;20053;-75
2022/12/14 01:30:42;;;;;;;5.53;3.60;;;;;;;;;;4980792;28;20331;-73
2022/12/14 01:33:15;;;;;;;6.63;4.07;;;;;;;;;;5005925;28;20038;-75
2022/12/14 01:35:42;;;;;;;5.57;3.88;;;;;;;;;;5002510;28;20034;-75
2022/12/14 01:38:10;;;;;;;5.38;4.78;;;;;;;;;;4966671;28;20133;-73
2022/12/14 01:40:37;;;;;;;11.15;10.15;;;;;;;;;;4979951;28;20053;-75
2022/12/14 01:43:12;;;;;;;6.72;4.80;;;;;;;;;;5005607;28;20480;-74
2022/12/14 01:45:39;;;;;;;5.63;4.03;;;;;;;;;;5004590;28;20405;-74
2022/12/14 01:48:08;;;;;;;6.43;4.43;;;;;;;;;;5003576;28;20477;-74
2022/12/14 01:50:38;;;;;;;8.65;4.90;;;;;;;;;;5000668;28;20037;-75
2022/12/14 01:53:07;;;;;;;7.75;4.90;;;;;;;;;;4970572;28;20458;-75
2022/12/14 01:55:38;;;;;;;5.30;4.32;;;;;;;;;;4989836;28;20042;-75
2022/12/14 01:58:09;;;;;;;7.70;3.88;;;;;;;;;;4990261;28;20038;-75
2022/12/14 02:00:37;;;;;;;8.32;4.47;;;;;;;;;;5001262;28;20112;-75
2022/12/14 02:03:06;;;;;;;7.97;6.57;;;;;;;;;;4988264;28;20041;-74
2022/12/14 02:05:35;;;;;;;5.45;4.13;;;;;;;;;;5015509;28;20416;-75
2022/12/14 02:08:02;;;;;;;8.50;5.35;;;;;;;;;;4970524;28;20061;-75
2022/12/14 02:10:31;;;;;;;5.88;4.65;;;;;;;;;;5002078;28;20497;-75
2022/12/14 02:13:05;;;;;;;9.10;5.15;;;;;;;;;;4986297;28;20037;-74
2022/12/14 02:15:34;;;;;;;4.53;4.10;;;;;;;;;;5003891;28;20152;-75
2022/12/14 02:18:02;;;;;;;8.30;4.47;;;;;;;;;;4993900;28;20516;-75
2022/12/14 02:20:35;;;;;;;5.60;4.38;;;;;;;;;;4996719;28;20125;-75
2022/12/14 02:23:11;;;;;;;5.65;4.45;;;;;;;;;;5048059;22;20140;-83
2022/12/14 02:25:54;;;;;;;6.85;4.55;;;;;;;;;;4991464;28;20049;-83
2022/12/14 02:28:33;;;;;;;7.03;4.00;;;;;;;;;;5005346;28;20046;-84
2022/12/14 02:31:07;;;;;;;6.78;4.60;;;;;;;;;;5005949;28;20045;-84
2022/12/14 02:33:47;;;;;;;8.10;5.22;;;;;;;;;;4989150;28;20262;-83
2022/12/14 02:36:30;;;;;;;6.90;3.97;;;;;;;;;;5012586;28;20422;-84
2022/12/14 02:39:03;;;;;;;7.65;5.13;;;;;;;;;;5029473;28;20049;-84
2022/12/14 02:41:44;;;;;;;8.00;4.70;;;;;;;;;;4991530;28;20056;-82
2022/12/14 02:44:18;;;;;;;5.78;3.88;;;;;;;;;;5028744;28;20479;-82
2022/12/14 02:46:57;;;;;;;6.03;4.10;;;;;;;;;;5024685;28;20048;-82
2022/12/14 02:49:35;;;;;;;5.85;4.20;;;;;;;;;;5022418;28;20063;-82
2022/12/14 02:52:10;;;;;;;4.97;3.42;;;;;;;;;;5024327;28;20041;-83
2022/12/14 02:54:43;;;;;;;6.22;4.35;;;;;;;;;;5029206;28;20042;-84
2022/12/14 02:57:16;;;;;;;6.10;4.25;;;;;;;;;;5018573;28;20048;-84
2022/12/14 02:59:44;;;;;;;6.15;5.13;;;;;;;;;;5012077;28;20060;-84
2022/12/14 03:02:12;;;;;;;7.90;4.72;;;;;;;;;;5029847;28;20410;-83
2022/12/14 03:04:44;;;;;;;5.75;4.68;;;;;;;;;;5027352;28;20069;-83
2022/12/14 03:07:31;;;;;;;5.75;4.38;;;;;;;;;;5013004;28;20049;-83
2022/12/14 03:10:11;;;;;;;8.75;4.47;;;;;;;;;;4998750;28;20041;-83
2022/12/14 03:12:40;;;;;;;8.13;5.00;;;;;;;;;;5028413;28;20053;-84
2022/12/14 03:15:12;;;;;;;5.53;4.05;;;;;;;;;;5010371;28;20042;-82
2022/12/14 03:17:40;;;;;;;8.52;4.82;;;;;;;;;;5006677;28;20045;-84
2022/12/14 03:20:20;;;;;;;6.18;4.57;;;;;;;;;;5023058;28;20064;-84
2022/12/14 03:22:51;;;;;;;10.45;4.82;;;;;;;;;;5014119;28;20048;-84
2022/12/14 03:25:29;;;;;;;7.03;4.88;;;;;;;;;;4998351;28;20044;-83
2022/12/14 03:28:10;;;;;;;5.05;4.28;;;;;;;;;;5019848;28;20042;-83
2022/12/14 03:30:39;;;;;;;8.13;5.38;;;;;;;;;;5040370;28;20046;-83
2022/12/14 03:33:27;;;;;;;5.57;4.18;;;;;;;;;;5047383;28;20565;-83
2022/12/14 03:36:06;;;;;;;7.38;4.85;;;;;;;;;;5020666;28;20044;-84
2022/12/14 03:38:38;;;;;;;8.85;5.40;;;;;;;;;;5000306;28;20045;-82
2022/12/14 03:41:14;;;;;;;8.68;6.78;;;;;;;;;;5003821;28;20056;-83
2022/12/14 03:44:00;;;;;;;9.85;5.05;;;;;;;;;;5008505;28;20382;-84
2022/12/14 03:46:33;;;;;;;9.27;5.30;;;;;;;;;;4997063;28;20550;-82
2022/12/14 03:49:27;;;;;;;6.97;5.22;;;;;;;;;;5022863;28;20041;-83
2022/12/14 03:52:00;;;;;;;9.65;5.22;;;;;;;;;;5012521;28;20072;-84
2022/12/14 03:54:40;;;;;;;3.72;3.38;;;;;;;;;;5016294;28;20033;-83
2022/12/14 03:57:13;;;;;;;5.32;4.10;;;;;;;;;;5019898;28;20034;-84
2022/12/14 03:59:59;;;;;;;6.55;4.60;;;;;;;;;;5025070;28;20048;-83
2022/12/14 04:02:29;;;;;;;7.07;4.90;;;;;;;;;;5029104;28;20119;-84
2022/12/14 04:05:18;;;;;;;7.68;5.40;;;;;;;;;;4973284;28;20076;-83
2022/12/14 04:07:45;;;;;;;5.85;4.60;;;;;;;;;;5008365;28;20046;-84
2022/12/14 04:19:00;;;;;;;6.93;4.78;;;;;;;;;;5018751;28;20438;-83
2022/12/14 04:21:30;;;;;;;9.80;6.13;;;;;;;;;;5008452;28;20095;-84
2022/12/14 04:26:52;;;;;;;10.68;9.68;;;;;;;;;;5008423;28;20045;-84
2022/12/14 04:32:17;;;;;;;7.88;4.93;;;;;;;;;;5030265;28;20057;-84
2022/12/14 04:34:46;;;;;;;9.55;6.07;;;;;;;;;;5028290;28;20069;-84
2022/12/14 04:37:15;;;;;;;12.98;6.72;;;;;;;;;;5017090;28;20088;-84
2022/12/14 04:39:46;;;;;;;7.95;6.18;;;;;;;;;;5029917;28;20045;-84
2022/12/14 04:42:14;;;;;;;12.60;6.30;;;;;;;;;;4999978;28;20057;-83
2022/12/14 04:44:44;;;;;;;11.80;6.88;;;;;;;;;;5010986;28;20041;-84
2022/12/14 04:47:13;;;;;;;9.35;6.38;;;;;;;;;;4994078;28;20050;-84
2022/12/14 04:50:00;;;;;;;11.55;10.43;;;;;;;;;;5039157;28;20033;-84
2022/12/14 04:52:31;;;;;;;7.75;5.40;;;;;;;;;;5031573;28;20037;-83
2022/12/14 04:55:08;;;;;;;9.63;6.33;;;;;;;;;;5013333;28;20052;-83
2022/12/14 04:57:40;;;;;;;8.35;5.95;;;;;;;;;;4999112;28;20334;-83
2022/12/14 05:00:08;;;;;;;;;;;;;;;;;;5027509;28;20052;-82
2022/12/14 05:02:50;;;;;;;8.50;7.20;;;;;;;;;;5045070;28;19925;-83
2022/12/14 05:05:25;;;;;;;17.92;16.60;;;;;;;;;;5012701;28;20050;-83
2022/12/14 05:07:57;;;;;;;13.43;6.18;;;;;;;;;;4998175;28;20103;-83
2022/12/14 05:10:42;;;;;;;9.45;6.03;;;;;;;;;;5010148;28;20134;-83
2022/12/14 05:13:14;;;;;;;9.77;6.00;;;;;;;;;;5025758;28;20045;-83
2022/12/14 05:15:43;;;;;;;7.60;5.60;;;;;;;;;;5002566;28;20076;-82
2022/12/14 05:18:11;;;;;;;6.80;5.03;;;;;;;;;;5020910;28;20042;-82
2022/12/14 05:20:38;;;;;;;10.35;6.13;;;;;;;;;;5016162;28;20069;-83
2022/12/14 05:23:05;;;;;;;12.85;9.52;;;;;;;;;;5019497;28;20045;-83
2022/12/14 05:25:33;;;;;;;9.65;5.63;;;;;;;;;;5016823;28;20046;-82
2022/12/14 05:28:00;;;;;;;9.43;6.30;;;;;;;;;;5003287;28;20053;-82
2022/12/14 05:30:28;;;;;;;8.18;5.32;;;;;;;;;;4990687;28;20140;-82
2022/12/14 05:32:56;;;;;;;7.65;5.75;;;;;;;;;;5019068;28;20034;-83
2022/12/14 05:35:26;;;;;;;8.70;6.43;;;;;;;;;;5003536;28;20049;-84
2022/12/14 05:37:53;;;;;;;11.02;9.93;;;;;;;;;;5006309;28;20041;-86
2022/12/14 05:40:22;;;;;;;9.55;8.57;;;;;;;;;;5005781;28;20046;-83
2022/12/14 05:42:49;;;;;;;12.45;8.85;;;;;;;;;;4993722;28;20045;-83
2022/12/14 05:45:22;;;;;;;16.33;10.27;;;;;;;;;;4990593;28;20131;-83
2022/12/14 05:47:49;;;;;;;10.82;6.78;;;;;;;;;;5027598;28;20132;-84
2022/12/14 05:50:16;;;;;;;10.25;9.15;;;;;;;;;;5025027;28;20048;-83
2022/12/14 05:52:44;;;;;;;10.88;7.18;;;;;;;;;;5007067;28;20049;-85
2022/12/14 05:55:36;;;;;;;10.25;6.82;;;;;;;;;;5024218;28;20058;-84
2022/12/14 05:58:03;;;;;;;13.48;12.18;;;;;;;;;;5006477;28;20053;-82
2022/12/14 06:00:33;;;;;;;10.32;7.18;;;;;;;;;;5018058;28;20406;-84
2022/12/14 06:03:00;;;;;;;12.00;10.73;;;;;;;;;;5033850;28;20442;-84
2022/12/14 06:05:28;;;;;;;15.02;11.70;;;;;;;;;;5023109;28;20047;-83
2022/12/14 06:07:55;;;;;;;10.70;7.35;;;;;;;;;;5003079;28;20410;-84
2022/12/14 06:10:22;;;;;;;10.68;7.43;;;;;;;;;;5008715;28;20597;-84
2022/12/14 06:12:50;;;;;;;10.77;7.13;;;;;;;;;;5023355;28;20041;-84
2022/12/14 06:15:20;;;;;;;13.10;7.63;;;;;;;;;;5003303;28;20049;-83
2022/12/14 06:17:47;;;;;;;16.10;9.73;;;;;;;;;;5020212;28;20042;-84
2022/12/14 06:20:15;;;;;;;12.45;8.57;;;;;;;;;;5027498;28;20564;-87
2022/12/14 06:22:42;;;;;;;14.18;8.20;;;;;;;;;;5004862;28;20115;-83
2022/12/14 06:25:14;;;;;;;16.48;9.23;;;;;;;;;;5026921;28;20051;-83
2022/12/14 06:27:42;;;;;;;11.70;7.82;;;;;;;;;;5007567;28;20120;-84
2022/12/14 06:30:10;;;;;;;14.77;9.18;;;;;;;;;;4996762;28;20041;-82
2022/12/14 06:32:38;;;;;;;10.77;7.40;;;;;;;;;;5029989;28;20017;-83
2022/12/14 06:35:08;;;;;;;10.98;7.00;;;;;;;;;;5023989;28;20534;-82
2022/12/14 06:37:35;;;;;;;11.02;8.00;;;;;;;;;;5039123;28;20068;-84
2022/12/14 06:40:05;;;;;;;12.68;8.82;;;;;;;;;;5011728;28;20054;-83
2022/12/14 06:42:33;;;;;;;12.02;8.35;;;;;;;;;;5030268;28;20056;-83
2022/12/14 06:45:00;;;;;;;13.82;9.15;;;;;;;;;;5028793;28;20044;-84
2022/12/14 06:47:27;;;;;;;16.30;10.02;;;;;;;;;;5009946;28;20198;-83
2022/12/14 06:49:57;;;;;;;16.40;9.40;;;;;;;;;;5004774;28;20042;-82
2022/12/14 06:52:24;;;;;;;12.25;8.85;;;;;;;;;;5035050;23;20075;-72
2022/12/14 06:54:53;;;;;;;16.85;11.43;;;;;;;;;;5017353;28;20120;-75
2022/12/14 06:57:21;;;;;;;17.02;9.27;;;;;;;;;;5001797;28;20042;-75
2022/12/14 06:59:48;;;;;;;12.18;7.75;;;;;;;;;;5015456;28;20037;-74
2022/12/14 07:02:15;;;;;;;10.10;7.53;;;;;;;;;;4980319;28;20050;-75
2022/12/14 07:04:43;;;;;;;14.40;10.52;;;;;;;;;;5020944;28;20060;-75
2022/12/14 07:07:10;;;;;;;18.48;10.82;;;;;;;;;;5017934;28;20042;-75
2022/12/14 07:09:38;;;;;;;11.48;7.70;;;;;;;;;;5002122;28;20041;-75
2022/12/14 07:12:05;;;;;;;14.95;13.55;;;;;;;;;;5001836;28;20119;-75
2022/12/14 07:14:33;;;;;;;12.90;6.72;;;;;;;;;;4990356;28;20103;-75
2022/12/14 07:17:00;;;;;;;10.77;7.82;;;;;;;;;;5014204;28;20119;-76
2022/12/14 07:19:27;;;;;;;14.02;8.00;;;;;;;;;;5015112;28;20048;-75
2022/12/14 07:21:55;;;;;;;10.95;7.75;;;;;;;;;;5003584;28;20088;-75
2022/12/14 07:24:22;;;;;;;13.52;8.35;;;;;;;;;;5017835;28;20050;-74
2022/12/14 07:26:50;;;;;;;13.45;8.82;;;;;;;;;;4995026;28;20141;-75
2022/12/14 07:29:17;;;;;;;13.70;9.23;;;;;;;;;;5004199;28;20194;-76
2022/12/14 07:31:44;;;;;;;13.38;8.90;;;;;;;;;;5012157;28;20477;-75
2022/12/14 07:34:16;;;;;;;13.30;8.80;;;;;;;;;;5019825;28;20489;-75
2022/12/14 07:36:43;;;;;;;13.43;10.40;;;;;;;;;;5019465;28;20068;-74
2022/12/14 07:39:13;;;;;;;13.75;8.15;;;;;;;;;;5018242;28;20045;-75
2022/12/14 07:41:41;;;;;;;11.77;8.43;;;;;;;;;;4999627;28;20064;-75
2022/12/14 07:44:09;;;;;;;12.32;8.23;;;;;;;;;;4983223;28;20045;-77
2022/12/14 07:46:36;;;;;;;9.93;6.97;;;;;;;;;;5016178;28;20068;-76
2022/12/14 07:49:04;;;;;;;10.45;7.60;;;;;;;;;;5010163;28;20042;-76
2022/12/14 07:51:34;;;;;;;10.82;7.70;;;;;;;;;;5026288;28;20552;-76
2022/12/14 07:54:03;;;;;;;12.15;8.32;;;;;;;;;;5005985;28;20039;-76
2022/12/14 07:56:38;;;;;;;13.55;9.40;;;;;;;;;;5015584;28;20033;-75
2022/12/14 07:59:07;;;;;;;16.55;9.85;;;;;;;;;;5036378;28;20042;-74
2022/12/14 08:01:35;;;;;;;10.93;7.43;;;;;;;;;;5044681;28;20068;-74
2022/12/14 08:04:06;;;;;;;13.73;8.68;;;;;;;;;;5031999;28;20264;-75
2022/12/14 08:06:34;;;;;;;12.02;8.80;;;;;;;;;;4999630;28;20050;-75
2022/12/14 08:09:03;;;;;;;14.80;8.77;;;;;;;;;;4999110;28;20468;-75
2022/12/14 08:11:30;;;;;;;13.52;9.68;;;;;;;;;;5019719;28;20083;-75
2022/12/14 08:13:59;;;;;;;10.32;6.90;;;;;;;;;;5015745;28;20105;-77
2022/12/14 08:16:26;;;;;;;14.60;9.20;;;;;;;;;;5016603;28;20037;-75
2022/12/14 08:18:55;;;;;;;36.00;32.17;;;;;;;;;;5023181;28;20044;-75
2022/12/14 08:21:23;;;;;;;15.77;9.60;;;;;;;;;;5012219;28;20103;-75
2022/12/14 08:27:39;;;;;;;13.48;10.38;;;;;;;;;;4996749;28;20577;-83
2022/12/14 08:30:11;;;;;;;16.23;8.95;;;;;;;;;;5021805;28;20034;-83
2022/12/14 08:32:49;;;;;;;11.48;8.02;;;;;;;;;;5007554;28;21813;-83
2022/12/14 08:35:27;;;;;;;13.30;8.55;;;;;;;;;;4995840;28;20045;-83
2022/12/14 08:37:59;;;;;;;13.07;9.48;;;;;;;;;;4995375;28;20049;-83
2022/12/14 08:40:28;;;;;;;14.60;9.40;;;;;;;;;;5002036;28;20077;-84
2022/12/14 08:42:58;;;;;;;16.65;10.48;;;;;;;;;;5027280;28;20041;-84
2022/12/14 08:45:25;;;;;;;15.75;9.18;;;;;;;;;;5026731;28;20072;-84
2022/12/14 08:48:04;;;;;;;13.35;9.90;;;;;;;;;;5008496;28;20440;-84
2022/12/14 08:51:01;;;;;;;13.18;7.85;;;;;;;;;;5006237;28;20104;-84
2022/12/14 08:53:39;;;;;;;13.68;9.38;;;;;;;;;;5018451;28;20038;-86
2022/12/14 08:56:34;;;;;;;13.93;7.80;;;;;;;;;;5020848;28;20127;-83
2022/12/14 08:59:15;;;;;;;;;;;;;;;;;;;;;
2022/12/14 09:02:58;;;;;;;;;;;;;;;;;;;;;
2022/12/14 09:10:16;;;;;;;11.30;7.13;;;;;;;;;;4946498;29;20047;-82
2022/12/14 09:13:33;;;;;;;16.67;11.77;;;;;;;;;;4940021;29;20051;-82
2022/12/14 09:16:41;;;;;;;;;;;;;;;;;;;;;
2022/12/14 09:19:19;;;;;;;14.50;8.70;;;;;;;;;;4965471;28;20147;-83
2022/12/14 09:21:57;;;;;;;11.65;8.57;;;;;;;;;;4950427;28;20434;-83
2022/12/14 09:24:27;;;;;;;14.18;9.70;;;;;;;;;;4966379;28;20062;-83
2022/12/14 09:27:02;;;;;;;14.80;10.48;;;;;;;;;;4939515;28;20398;-83
2022/12/14 09:29:30;;;;;;;13.95;8.13;;;;;;;;;;5009466;28;20602;-83
2022/12/14 09:32:04;;;;;;;14.73;8.18;;;;;;;;;;5013846;28;20051;-82
2022/12/14 09:34:37;;;;;;;14.88;10.32;;;;;;;;;;5019545;28;20145;-83
2022/12/14 09:37:07;;;;;;;17.77;9.00;;;;;;;;;;5027880;28;20041;-84
2022/12/14 09:39:36;;;;;;;19.45;8.65;;;;;;;;;;5011344;28;20050;-83
2022/12/14 09:42:29;;;;;;;15.25;8.75;;;;;;;;;;5001396;28;20038;-83
2022/12/14 09:45:20;;;;;;;12.10;7.72;;;;;;;;;;5015292;28;20498;-83
2022/12/14 09:48:11;;;;;;;11.80;8.00;;;;;;;;;;4996581;28;20129;-83
2022/12/14 09:50:50;;;;;;;11.25;6.80;;;;;;;;;;5005580;28;20049;-83
2022/12/14 09:53:25;;;;;;;10.88;7.80;;;;;;;;;;5008629;28;20068;-83
2022/12/14 09:55:58;;;;;;;17.48;8.40;;;;;;;;;;5011780;28;20044;-83
2022/12/14 09:58:27;;;;;;;14.23;8.73;;;;;;;;;;4978853;28;20041;-83
2022/12/14 10:00:55;;;;;;;18.08;9.55;;;;;;;;;;5031401;28;20045;-82
2022/12/14 10:03:26;;;;;;;15.93;9.15;;;;;;;;;;5037602;28;20055;-83
2022/12/14 10:06:04;;;;;;;26.35;9.88;;;;;;;;;;4998699;28;20060;-83
2022/12/14 10:08:38;;;;;;;16.40;9.50;;;;;;;;;;5031565;28;20376;-82
2022/12/14 10:11:13;;;;;;;12.73;8.20;;;;;;;;;;5034850;28;20056;-82
2022/12/14 10:13:52;;;;;;;16.73;8.13;;;;;;;;;;5008238;28;20133;-82
2022/12/14 10:16:52;;;;;;;19.27;8.98;;;;;;;;;;5032873;28;20037;-82
2022/12/14 10:19:26;;;;;;;20.08;10.35;;;;;;;;;;4982746;28;20050;-82
2022/12/14 10:21:56;;;;;;;11.73;8.23;;;;;;;;;;5021984;28;20745;-82
2022/12/14 10:24:33;;;;;;;17.73;9.07;;;;;;;;;;5030357;28;20080;-82
2022/12/14 10:27:02;;;;;;;17.98;9.13;;;;;;;;;;5017776;28;20077;-82
2022/12/14 10:29:48;;;;;;;14.40;8.60;;;;;;;;;;5017607;28;20047;-82
2022/12/14 10:32:21;;;;;;;18.15;12.07;;;;;;;;;;5018935;28;20036;-82
2022/12/14 10:34:48;;;;;;;13.75;8.60;;;;;;;;;;5034262;28;20041;-82
2022/12/14 10:37:16;;;;;;;14.55;8.93;;;;;;;;;;5002105;28;20049;-82
2022/12/14 10:39:46;;;;;;;11.40;8.48;;;;;;;;;;5015662;28;20488;-83
2022/12/14 10:42:21;;;;;;;16.05;9.27;;;;;;;;;;4997077;28;20046;-82
2022/12/14 10:44:48;;;;;;;;;;;;;;;;;;5016034;28;20421;-82
2022/12/14 10:47:26;;;;;;;20.23;8.43;;;;;;;;;;5009106;28;19921;-82
2022/12/14 10:49:57;;;;;;;13.70;8.47;;;;;;;;;;5023747;28;20045;-83
2022/12/14 10:52:27;;;;;;;16.45;8.82;;;;;;;;;;5032738;28;20095;-81
2022/12/14 10:54:56;;;;;;;14.00;7.53;;;;;;;;;;5038907;28;20058;-81
2022/12/14 10:57:29;;;;;;;16.73;8.70;;;;;;;;;;5021886;28;20140;-82
2022/12/14 10:59:57;;;;;;;18.67;9.48;;;;;;;;;;4978416;28;20792;-83
2022/12/14 11:02:39;;;;;;;15.15;10.65;;;;;;;;;;5027467;28;20064;-82
2022/12/14 11:05:17;;;;;;;16.52;8.93;;;;;;;;;;5017886;28;20037;-82
2022/12/14 11:07:48;;;;;;;23.38;8.80;;;;;;;;;;5042740;28;20067;-83
2022/12/14 11:10:15;;;;;;;18.95;8.88;;;;;;;;;;5018651;28;20045;-82
2022/12/14 11:12:54;;;;;;;11.00;7.53;;;;;;;;;;5036050;28;20137;-82
2022/12/14 11:15:24;;;;;;;15.55;8.23;;;;;;;;;;5029716;28;20124;-82
2022/12/14 11:18:02;;;;;;;34.50;10.32;;;;;;;;;;5033937;28;20069;-82
2022/12/14 11:20:31;;;;;;;11.30;8.35;;;;;;;;;;5021266;28;20113;-82
2022/12/14 11:23:05;;;;;;;18.63;8.93;;;;;;;;;;5018668;28;20050;-81
2022/12/14 11:25:35;;;;;;;20.10;8.98;;;;;;;;;;5017116;28;20508;-83
2022/12/14 11:28:13;;;;;;;18.20;9.65;;;;;;;;;;5015381;28;20065;-82
2022/12/14 11:30:51;;;;;;;13.23;8.98;;;;;;;;;;5026081;28;20045;-82
2022/12/14 11:33:19;;;;;;;45.30;9.43;;;;;;;;;;4994936;28;20052;-82
2022/12/14 11:35:51;;;;;;;19.67;7.88;;;;;;;;;;5008013;28;20270;-82
2022/12/14 11:38:19;;;;;;;22.80;8.68;;;;;;;;;;5013358;28;20570;-82
2022/12/14 11:40:47;;;;;;;15.70;8.07;;;;;;;;;;5012010;28;20075;-82
2022/12/14 11:43:25;;;;;;;11.55;8.13;;;;;;;;;;5000490;28;20507;-82
2022/12/14 11:45:56;;;;;;;12.38;7.10;;;;;;;;;;5010176;28;20116;-82
2022/12/14 11:48:26;;;;;;;10.77;7.00;;;;;;;;;;4990609;28;20517;-82
2022/12/14 11:51:11;;;;;;;21.65;9.13;;;;;;;;;;5012311;28;20046;-81
2022/12/14 11:53:39;;;;;;;19.23;7.55;;;;;;;;;;5011342;28;20096;-82
2022/12/14 11:56:10;;;;;;;11.60;7.70;;;;;;;;;;5013868;28;20497;-81
2022/12/14 11:58:39;;;;;;;13.43;8.73;;;;;;;;;;5015282;28;20525;-82
2022/12/14 12:01:19;;;;;;;16.73;8.13;;;;;;;;;;5027763;28;20049;-82
2022/12/14 12:03:48;;;;;;;15.65;8.00;;;;;;;;;;5029192;28;20103;-82
2022/12/14 12:06:21;;;;;;;24.20;9.38;;;;;;;;;;5023334;28;20128;-82
2022/12/14 12:08:53;;;;;;;17.70;8.27;;;;;;;;;;5009068;28;20037;-82
2022/12/14 12:11:21;;;;;;;16.52;7.72;;;;;;;;;;5000267;28;20169;-81
2022/12/14 12:13:56;;;;;;;14.80;7.57;;;;;;;;;;5028390;28;20041;-82
2022/12/14 12:16:26;;;;;;;21.25;8.68;;;;;;;;;;5030478;28;20100;-83
2022/12/14 12:19:08;;;;;;;15.50;7.55;;;;;;;;;;5030909;28;20408;-81
2022/12/14 12:21:43;;;;;;;29.58;9.35;;;;;;;;;;4999375;28;20064;-81
2022/12/14 12:24:16;;;;;;;13.32;7.55;;;;;;;;;;4995058;28;20183;-83
2022/12/14 12:26:52;;;;;;;10.82;7.60;;;;;;;;;;4993079;28;20042;-82
2022/12/14 12:29:43;;;;;;;16.27;8.60;;;;;;;;;;5022683;28;20041;-82
2022/12/14 12:32:15;;;;;;;10.63;7.28;;;;;;;;;;4999310;28;20034;-82
2022/12/14 12:34:49;;;;;;;12.60;8.13;;;;;;;;;;5017687;28;20045;-82
2022/12/14 12:37:18;;;;;;;13.55;9.65;;;;;;;;;;5010944;28;20049;-82
2022/12/14 12:39:57;;;;;;;10.85;7.72;;;;;;;;;;4993985;28;20133;-82
2022/12/14 12:42:29;;;;;;;11.38;8.40;;;;;;;;;;5029579;28;20046;-82
2022/12/14 12:45:07;;;;;;;13.32;8.57;;;;;;;;;;5015464;28;20046;-82
2022/12/14 12:47:41;;;;;;;9.75;7.82;;;;;;;;;;5024680;28;20056;-82
2022/12/14 12:50:15;;;;;;;10.82;8.05;;;;;;;;;;5009560;28;20045;-82
2022/12/14 12:53:03;;;;;;;13.98;12.35;;;;;;;;;;5009845;28;20124;-82
2022/12/14 12:55:40;;;;;;;11.60;8.40;;;;;;;;;;5010541;28;20044;-82
2022/12/14 12:58:22;;;;;;;14.45;9.77;;;;;;;;;;5008126;28;20542;-82
2022/12/14 13:00:54;;;;;;;12.75;8.80;;;;;;;;;;5028377;28;20129;-82
2022/12/14 13:03:27;;;;;;;13.27;8.88;;;;;;;;;;5010328;28;20123;-81
2022/12/14 13:05:56;;;;;;;11.30;8.43;;;;;;;;;;5028395;28;20077;-82
2022/12/14 13:08:26;;;;;;;13.15;8.95;;;;;;;;;;5009007;28;20046;-81
2022/12/14 13:10:56;;;;;;;17.08;11.50;;;;;;;;;;5016735;28;20042;-82
2022/12/14 13:13:46;;;;;;;17.27;10.25;;;;;;;;;;5002263;28;20037;-82
2022/12/14 13:16:23;;;;;;;15.68;9.45;;;;;;;;;;5010703;28;20044;-81
2022/12/14 13:18:57;;;;;;;14.32;9.93;;;;;;;;;;5028838;28;20088;-82
2022/12/14 13:21:50;;;;;;;16.88;9.40;;;;;;;;;;5013798;28;20132;-81
2022/12/14 13:24:18;;;;;;;13.75;9.40;;;;;;;;;;5028165;28;20049;-83
2022/12/14 13:27:12;;;;;;;11.50;8.52;;;;;;;;;;5028762;28;20046;-82
2022/12/14 13:30:02;;;;;;;15.23;8.85;;;;;;;;;;5010833;28;20045;-81
2022/12/14 13:32:43;;;;;;;13.27;8.60;;;;;;;;;;5010609;28;20037;-82
2022/12/14 13:35:10;;;;;;;14.98;9.20;;;;;;;;;;5028084;28;20048;-82
2022/12/14 13:37:43;;;;;;;16.73;10.07;;;;;;;;;;5010564;28;20049;-82
2022/12/14 13:40:34;;;;;;;18.73;10.18;;;;;;;;;;5010678;28;20121;-82
2022/12/14 13:43:01;;;;;;;15.25;9.48;;;;;;;;;;4988110;28;20400;-82
2022/12/14 13:45:31;;;;;;;15.85;9.88;;;;;;;;;;5027798;28;20044;-82
2022/12/14 13:47:59;;;;;;;19.40;10.23;;;;;;;;;;4978545;28;20081;-81
2022/12/14 13:50:30;;;;;;;16.58;9.98;;;;;;;;;;5028381;28;20068;-82
2022/12/14 13:53:27;;;;;;;12.95;8.95;;;;;;;;;;5010632;28;20049;-83
2022/12/14 13:55:56;;;;;;;15.65;9.15;;;;;;;;;;5028407;28;20041;-82
2022/12/14 13:58:26;;;;;;;13.65;8.50;;;;;;;;;;5028496;28;20209;-82
2022/12/14 14:00:56;;;;;;;24.33;17.55;;;;;;;;;;5011096;28;20457;-82
2022/12/14 14:03:38;;;;;;;19.45;10.52;;;;;;;;;;5029654;28;20073;-81
2022/12/14 14:06:09;;;;;;;12.18;8.90;;;;;;;;;;5010702;28;20045;-81
2022/12/14 14:08:37;;;;;;;19.63;10.70;;;;;;;;;;5010872;28;20049;-82
2022/12/14 14:11:20;;;;;;;19.83;16.75;;;;;;;;;;4979404;28;20053;-82
2022/12/14 14:14:11;;;;;;;17.45;10.15;;;;;;;;;;5013366;28;20049;-82
2022/12/14 14:16:42;;;;;;;19.80;10.32;;;;;;;;;;5033295;28;20046;-82
2022/12/14 14:19:36;;;;;;;25.25;10.82;;;;;;;;;;5032119;28;20048;-83
2022/12/14 14:22:21;;;;;;;17.65;12.07;;;;;;;;;;5032056;28;20053;-84
2022/12/14 14:24:55;;;;;;;18.70;11.40;;;;;;;;;;5017718;28;20037;-83
2022/12/14 14:27:27;;;;;;;21.75;17.60;;;;;;;;;;5017600;28;20050;-82
2022/12/14 14:29:56;;;;;;;16.50;10.82;;;;;;;;;;5035070;28;20104;-82
2022/12/14 14:32:37;;;;;;;16.13;11.82;;;;;;;;;;5014160;28;20050;-84
2022/12/14 14:35:32;;;;;;;17.20;13.00;;;;;;;;;;5020116;28;20077;-83
2022/12/14 14:38:32;;;;;;;;;;;;;;;;;;;;;
2022/12/14 14:41:49;;;;;;;;;;;;;;;;;;;;;
2022/12/14 14:45:11;;;;;;;17.52;10.63;;;;;;;;;;4976649;28;20524;-84
2022/12/14 14:52:53;;;;;;;;;;;;;;;;;;;;;
2022/12/14 14:55:57;;;;;;;21.50;12.52;;;;;;;;;;5029860;23;20057;-75
2022/12/14 14:58:35;;;;;;;18.83;12.38;;;;;;;;;;5049102;28;20052;-76
2022/12/14 15:01:06;;;;;;;16.98;15.27;;;;;;;;;;5031579;28;20095;-75
2022/12/14 15:03:54;;;;;;;16.10;10.52;;;;;;;;;;5029152;28;20047;-75
2022/12/14 15:06:23;;;;;;;20.70;11.70;;;;;;;;;;5029247;28;20049;-74
2022/12/14 15:09:04;;;;;;;19.98;12.00;;;;;;;;;;5011570;28;20049;-73
2022/12/14 15:11:35;;;;;;;19.73;11.90;;;;;;;;;;5011917;28;20132;-76
2022/12/14 15:14:12;;;;;;;21.15;11.73;;;;;;;;;;5029026;28;20528;-75
2022/12/14 15:16:44;;;;;;;26.77;19.95;;;;;;;;;;5029461;28;20280;-75
2022/12/14 15:19:35;;;;;;;15.05;10.25;;;;;;;;;;5029628;28;20446;-75
2022/12/14 15:22:04;;;;;;;14.65;12.80;;;;;;;;;;5029914;28;20054;-75
2022/12/14 15:24:42;;;;;;;16.00;10.68;;;;;;;;;;5029937;28;20184;-75
2022/12/14 15:27:16;;;;;;;16.85;11.55;;;;;;;;;;5029952;28;20041;-77
2022/12/14 15:29:46;;;;;;;14.25;10.52;;;;;;;;;;5011332;28;20053;-75
2022/12/14 15:32:16;;;;;;;18.50;12.70;;;;;;;;;;5029342;28;20038;-75
2022/12/14 15:34:50;;;;;;;50.08;45.85;;;;;;;;;;5027906;28;20123;-75
2022/12/14 15:37:36;;;;;;;17.52;10.98;;;;;;;;;;5027935;28;20061;-76
2022/12/14 15:40:06;;;;;;;18.13;10.77;;;;;;;;;;5029028;28;20072;-75
2022/12/14 15:42:33;;;;;;;18.98;11.32;;;;;;;;;;5028915;28;20041;-75
2022/12/14 15:45:07;;;;;;;20.10;12.88;;;;;;;;;;5026915;28;20497;-74